createdAt,value
2023-03-17T00:02:33.140Z,-1.21
2023-03-17T00:07:40.744Z,-1.16
2023-03-17T00:12:49.574Z,-1.12
2023-03-17T00:17:58.307Z,-1.06
2023-03-17T00:23:06.357Z,-1.01
2023-03-17T00:28:19.491Z,-1.01
2023-03-17T00:33:29.345Z,-1.00
2023-03-17T00:38:37.724Z,-0.99
2023-03-17T00:43:45.737Z,-0.93
2023-03-17T00:48:52.866Z,-1.01
2023-03-17T00:54:00.134Z,-1.09
2023-03-17T00:59:06.996Z,-1.14
2023-03-17T01:04:14.346Z,-1.13
2023-03-17T01:09:26.059Z,-1.08
2023-03-17T01:14:33.201Z,-1.05
2023-03-17T01:19:40.844Z,-0.98
2023-03-17T01:24:48.282Z,-0.93
2023-03-17T01:29:57.090Z,-0.93
2023-03-17T01:35:04.872Z,-0.97
2023-03-17T01:40:17.483Z,-1.05
2023-03-17T01:45:59.806Z,-1.08
2023-03-17T01:51:08.626Z,-1.06
2023-03-17T01:56:16.783Z,-1.04
2023-03-17T02:01:29.221Z,-1.05
2023-03-17T02:06:42.159Z,-1.07
2023-03-17T02:11:55.719Z,-1.11
2023-03-17T02:17:02.850Z,-1.16
2023-03-17T02:22:10.326Z,-1.22
2023-03-17T02:27:21.524Z,-1.24
2023-03-17T02:32:28.847Z,-1.23
2023-03-17T02:37:36.645Z,-1.16
2023-03-17T02:42:44.680Z,-1.08
2023-03-17T02:47:53.056Z,-1.05
2023-03-17T02:53:00.325Z,-1.08
2023-03-17T02:58:07.481Z,-1.11
2023-03-17T03:03:14.643Z,-1.08
2023-03-17T03:08:22.186Z,-1.04
2023-03-17T03:13:29.564Z,-0.97
2023-03-17T03:18:37.346Z,-0.94
2023-03-17T03:23:43.513Z,-0.99
2023-03-17T03:28:52.181Z,-1.10
2023-03-17T03:33:59.388Z,-1.20
2023-03-17T03:39:06.878Z,-1.24
2023-03-17T03:44:14.023Z,-1.25
2023-03-17T03:49:21.215Z,-1.22
2023-03-17T03:54:28.633Z,-1.19
2023-03-17T03:59:35.724Z,-1.16
2023-03-17T04:04:42.863Z,-1.18
2023-03-17T04:09:51.076Z,-1.17
2023-03-17T04:14:58.509Z,-1.12
2023-03-17T04:20:06.220Z,-1.04
2023-03-17T04:25:14.898Z,-0.96
2023-03-17T04:30:22.180Z,-0.91
2023-03-17T04:35:29.388Z,-0.93
2023-03-17T04:40:36.510Z,-1.02
2023-03-17T04:45:43.623Z,-1.05
2023-03-17T04:50:51.513Z,-1.02
2023-03-17T04:55:59.205Z,-0.96
2023-03-17T05:01:07.391Z,-0.89
2023-03-17T05:06:14.560Z,-0.87
2023-03-17T05:11:22.174Z,-0.92
2023-03-17T05:16:29.401Z,-0.90
2023-03-17T05:21:36.599Z,-0.84
2023-03-17T05:26:44.818Z,-0.80
2023-03-17T05:31:52.167Z,-0.75
2023-03-17T05:36:59.341Z,-0.68
2023-03-17T05:42:08.577Z,-0.62
2023-03-17T05:47:15.814Z,-0.62
2023-03-17T05:52:22.962Z,-0.64
2023-03-17T05:57:30.327Z,-0.65
2023-03-17T06:02:37.693Z,-0.65
2023-03-17T06:07:53.918Z,-0.61
2023-03-17T06:13:04.726Z,-0.55
2023-03-17T06:18:11.920Z,-0.50
2023-03-17T06:23:19.106Z,-0.45
2023-03-17T06:28:27.583Z,-0.41
2023-03-17T06:33:34.741Z,-0.37
2023-03-17T06:38:46.222Z,-0.34
2023-03-17T06:43:53.414Z,-0.30
2023-03-17T06:49:03.346Z,-0.28
2023-03-17T06:54:11.074Z,-0.21
2023-03-17T06:59:18.255Z,-0.11
2023-03-17T07:04:25.515Z,0.01
2023-03-17T07:09:33.589Z,0.09
2023-03-17T07:14:47.035Z,0.14
2023-03-17T07:19:54.102Z,0.22
2023-03-17T07:25:01.342Z,0.30
2023-03-17T07:30:19.060Z,0.43
2023-03-17T07:35:27.109Z,0.57
2023-03-17T07:40:35.513Z,0.70
2023-03-17T07:45:43.239Z,0.87
2023-03-17T07:50:50.959Z,1.12
2023-03-17T07:55:58.195Z,1.64
2023-03-17T08:01:05.670Z,2.24
2023-03-17T08:06:12.808Z,2.73
2023-03-17T08:11:20.212Z,2.96
2023-03-17T08:16:27.837Z,3.01
2023-03-17T08:21:35.154Z,3.08
2023-03-17T08:26:42.931Z,3.22
2023-03-17T08:31:50.290Z,3.46
2023-03-17T08:36:58.132Z,4.15
2023-03-17T08:42:08.438Z,5.17
2023-03-17T08:47:15.609Z,6.14
2023-03-17T08:52:23.380Z,6.98
2023-03-17T08:57:49.676Z,7.48
2023-03-17T09:02:58.306Z,7.64
2023-03-17T09:08:05.665Z,7.23
2023-03-17T09:13:13.094Z,6.78
2023-03-17T09:18:22.121Z,6.55
2023-03-17T09:23:29.431Z,6.60
2023-03-17T09:28:39.991Z,6.58
2023-03-17T09:33:47.516Z,6.75
2023-03-17T09:38:56.089Z,7.16
2023-03-17T09:44:13.421Z,7.62
2023-03-17T09:49:25.409Z,7.78
2023-03-17T09:54:38.258Z,7.76
2023-03-17T09:59:47.490Z,7.49
2023-03-17T10:04:57.597Z,7.19
2023-03-17T10:10:04.309Z,7.03
2023-03-17T10:15:23.307Z,6.97
2023-03-17T10:20:38.406Z,6.96
2023-03-17T10:25:49.904Z,7.05
2023-03-17T10:31:19.911Z,7.20
2023-03-17T10:43:08.350Z,7.40
2023-03-17T10:48:20.363Z,7.44
2023-03-17T10:53:29.254Z,7.44
2023-03-17T10:58:49.120Z,7.39
2023-03-17T11:03:57.713Z,7.31
2023-03-17T11:09:11.090Z,7.25
2023-03-17T11:14:20.368Z,7.22
2023-03-17T11:19:38.744Z,7.22
2023-03-17T11:24:49.451Z,7.22
2023-03-17T11:30:16.932Z,7.25
2023-03-17T11:35:45.414Z,7.28
2023-03-17T11:41:19.677Z,7.37
2023-03-17T11:46:43.632Z,7.46
2023-03-17T11:52:01.970Z,7.56
2023-03-17T11:57:18.918Z,7.76
2023-03-17T12:02:33.634Z,7.96
2023-03-17T12:07:45.775Z,8.06
2023-03-17T12:12:58.538Z,8.16
2023-03-17T12:18:13.345Z,8.27
2023-03-17T12:23:30.499Z,8.42
2023-03-17T12:28:44.084Z,8.49
2023-03-17T12:33:58.964Z,8.57
2023-03-17T12:39:10.695Z,8.51
2023-03-17T12:44:30.873Z,8.43
2023-03-17T12:49:53.800Z,8.39
2023-03-17T12:55:04.922Z,8.55
2023-03-17T13:00:27.299Z,8.72
2023-03-17T13:05:37.467Z,8.85
2023-03-17T13:10:50.667Z,8.91
2023-03-17T13:16:00.588Z,9.05
2023-03-17T13:21:17.458Z,9.22
2023-03-17T13:26:41.058Z,9.28
2023-03-17T13:31:51.479Z,9.33
2023-03-17T13:37:05.611Z,9.33
2023-03-17T13:42:24.569Z,9.26
2023-03-17T13:47:36.824Z,9.28
2023-03-17T13:52:48.514Z,9.24
2023-03-17T13:58:23.554Z,9.26
2023-03-17T14:03:38.994Z,9.33
2023-03-17T14:08:50.691Z,9.37
2023-03-17T14:14:15.157Z,9.39
2023-03-17T14:19:27.147Z,9.39
2023-03-17T14:24:35.533Z,9.38
2023-03-17T14:29:48.573Z,9.39
2023-03-17T14:35:00.161Z,9.38
2023-03-17T14:40:24.397Z,9.33
2023-03-17T14:45:43.444Z,9.29
2023-03-17T14:50:56.476Z,9.27
2023-03-17T14:56:04.466Z,9.21
2023-03-17T15:01:18.854Z,9.17
2023-03-17T15:06:28.045Z,9.14
2023-03-17T15:11:47.613Z,9.11
2023-03-17T15:16:56.865Z,9.07
2023-03-17T15:22:24.642Z,9.04
2023-03-17T15:27:33.097Z,9.03
2023-03-17T15:32:41.370Z,9.01
2023-03-17T15:37:48.965Z,9.01
2023-03-17T15:42:57.313Z,9.01
2023-03-17T15:48:12.691Z,8.99
2023-03-17T15:53:20.424Z,8.94
2023-03-17T15:58:28.652Z,8.88
2023-03-17T16:03:40.129Z,8.77
2023-03-17T16:08:47.730Z,8.67
2023-03-17T16:13:56.267Z,8.55
2023-03-17T16:19:04.893Z,8.46
2023-03-17T16:24:20.016Z,8.35
2023-03-17T16:29:27.401Z,8.23
2023-03-17T16:34:34.822Z,8.13
2023-03-17T16:39:43.173Z,8.04
2023-03-17T16:44:51.695Z,7.94
2023-03-17T16:49:59.011Z,7.84
2023-03-17T16:55:08.374Z,7.76
2023-03-17T17:00:22.625Z,7.64
2023-03-17T17:05:32.473Z,7.55
2023-03-17T17:10:40.058Z,7.46
2023-03-17T17:15:47.977Z,7.37
2023-03-17T17:20:56.869Z,7.28
2023-03-17T17:26:04.422Z,7.18
2023-03-17T17:31:12.139Z,7.13
2023-03-17T17:36:20.148Z,7.07
2023-03-17T17:41:27.999Z,6.99
2023-03-17T17:46:35.440Z,6.91
2023-03-17T17:51:42.657Z,6.81
2023-03-17T17:56:50.729Z,6.72
2023-03-17T18:02:00.079Z,6.62
2023-03-17T18:07:09.659Z,6.53
2023-03-17T18:12:17.308Z,6.47
2023-03-17T18:17:25.768Z,6.41
2023-03-17T18:22:33.768Z,6.34
2023-03-17T18:27:39.701Z,6.27
2023-03-17T18:32:49.714Z,6.21
2023-03-17T18:37:58.898Z,6.14
2023-03-17T18:43:06.288Z,6.10
2023-03-17T18:48:13.573Z,6.06
2023-03-17T18:53:22.338Z,6.04
2023-03-17T18:58:29.856Z,6.03
2023-03-17T19:03:37.263Z,6.01
2023-03-17T19:08:45.062Z,5.99
2023-03-17T19:13:53.599Z,5.96
2023-03-17T19:19:01.832Z,5.93
2023-03-17T19:24:11.887Z,5.91
2023-03-17T19:29:19.666Z,5.90
2023-03-17T19:34:27.424Z,5.88
2023-03-17T19:39:34.757Z,5.88
2023-03-17T19:44:42.194Z,5.86
2023-03-17T19:49:49.514Z,5.85
2023-03-17T19:54:57.225Z,5.83
2023-03-17T20:00:08.964Z,5.82
2023-03-17T20:05:17.520Z,5.81
2023-03-17T20:10:24.846Z,5.80
2023-03-17T20:15:32.062Z,5.79
2023-03-17T20:20:39.485Z,5.79
2023-03-17T20:25:46.894Z,5.78
2023-03-17T20:30:54.133Z,5.75
2023-03-17T20:36:01.992Z,5.73
2023-03-17T20:41:11.986Z,5.71
2023-03-17T20:46:20.831Z,5.68
2023-03-17T20:51:28.857Z,5.64
2023-03-17T20:56:34.924Z,5.60
2023-03-17T21:01:42.888Z,5.55
2023-03-17T21:06:48.558Z,5.49
2023-03-17T21:11:55.938Z,5.44
2023-03-17T21:17:04.117Z,5.38
2023-03-17T21:22:12.603Z,5.31
2023-03-17T21:27:18.192Z,5.24
2023-03-17T21:32:27.894Z,5.17
2023-03-17T21:37:35.577Z,5.12
2023-03-17T21:42:44.456Z,5.05
2023-03-17T21:47:52.101Z,5.00
2023-03-17T21:53:19.962Z,4.98
2023-03-17T21:58:32.863Z,4.92
2023-03-17T22:03:42.535Z,4.84
2023-03-17T22:08:50.844Z,4.77
2023-03-17T22:13:58.589Z,4.71
2023-03-17T22:19:04.849Z,4.64
2023-03-17T22:24:12.744Z,4.58
2023-03-17T22:29:18.900Z,4.53
2023-03-17T22:34:26.879Z,4.49
2023-03-17T22:39:32.527Z,4.44
2023-03-17T22:44:40.669Z,4.37
2023-03-17T22:49:47.775Z,4.29
2023-03-17T22:54:54.952Z,4.22
2023-03-17T23:00:02.335Z,4.15
2023-03-17T23:05:11.162Z,4.09
2023-03-17T23:10:22.270Z,4.04
2023-03-17T23:15:30.038Z,3.99
2023-03-17T23:20:37.618Z,3.94
2023-03-17T23:25:47.709Z,3.91
2023-03-17T23:30:55.497Z,3.88
2023-03-17T23:36:01.256Z,3.83
2023-03-17T23:41:08.709Z,3.80
2023-03-17T23:46:16.183Z,3.77
2023-03-17T23:51:24.133Z,3.73
2023-03-17T23:56:33.677Z,3.71
